Time;durP1;ratioP1;P1;durP2;ratioP2;P2;SDS_P1;SDS_P2;PMS_P1;PMS_P2;Temp;Humidity;BMP_temperature;BMP_pressure;BME280_temperature;BME280_humidity;BME280_pressure;Samples;Min_cycle;Max_cycle;Signal;HPM_P1;HPM_P2
2023/10/02 00:01:53;;;;;;;19.83;9.90;;;;;;;15.21;100.00;101976.66;4958884;28;20488;-75
2023/10/02 00:04:19;;;;;;;20.17;10.53;;;;;;;17.40;100.00;102323.78;4964217;28;20441;-75
2023/10/02 00:06:50;;;;;;;18.20;8.60;;;;;;;15.81;100.00;102077.81;4963628;28;20446;-75
2023/10/02 00:09:20;;;;;;;16.20;8.83;;;;;;;17.00;100.00;102264.09;4965025;28;20879;-75
2023/10/02 00:11:46;;;;;;;16.53;7.63;;;;;;;15.14;100.00;101955.03;4962287;28;21309;-75
2023/10/02 00:14:19;;;;;;;13.13;7.70;;;;;;;16.35;100.00;102151.88;4980195;28;21000;-75
2023/10/02 00:17:03;;;;;;;14.27;7.03;;;;;;;15.20;100.00;101977.72;4966283;28;20198;-75
2023/10/02 00:19:49;;;;;;;13.50;8.27;;;;;;;17.25;100.00;102323.97;4966517;28;20480;-75
2023/10/02 00:25:16;;;;;;;16.37;8.87;;;;;;;17.32;100.00;102349.22;4969018;28;20464;-75
2023/10/02 00:27:46;;;;;;;14.50;8.20;;;;;;;17.24;100.00;102337.72;4985152;28;20445;-75
2023/10/02 00:30:13;;;;;;;13.83;6.90;;;;;;;17.23;100.00;102328.78;4968279;28;20434;-76
2023/10/02 00:32:41;;;;;;;14.77;9.07;;;;;;;17.31;100.00;102342.13;4966948;28;21192;-75
2023/10/02 00:35:11;;;;;;;16.83;8.50;;;;;;;17.28;100.00;102342.56;4966640;28;20473;-75
2023/10/02 00:37:51;;;;;;;13.70;8.00;;;;;;;17.26;100.00;102341.09;4967824;28;20541;-75
2023/10/02 00:40:20;;;;;;;17.50;9.90;;;;;;;17.27;100.00;102348.16;4968061;28;20441;-76
2023/10/02 00:46:23;;;;;;;19.17;10.70;;;;;;;16.96;100.00;102308.94;4982935;28;20755;-75
2023/10/02 00:48:49;;;;;;;17.10;8.53;;;;;;;16.96;100.00;102295.38;4985540;28;20436;-75
2023/10/02 00:51:15;;;;;;;17.40;8.70;;;;;;;17.32;100.00;102351.94;4978003;28;20445;-75
2023/10/02 00:53:47;;;;;;;20.87;11.10;;;;;;;16.78;100.00;102262.59;4968742;28;21060;-75
2023/10/02 00:56:23;;;;;;;19.50;11.17;;;;;;;17.28;100.00;102356.09;4969699;28;20434;-75
2023/10/02 00:59:00;;;;;;;18.77;9.97;;;;;;;17.02;100.00;102312.69;4965422;28;20445;-75
2023/10/02 01:01:31;;;;;;;20.83;10.90;;;;;;;17.21;100.00;102349.81;4968627;28;20433;-75
2023/10/02 01:04:10;;;;;;;19.63;10.63;;;;;;;16.81;100.00;102264.91;4966353;28;20872;-75
2023/10/02 01:06:55;;;;;;;16.97;9.50;;;;;;;17.25;100.00;102348.38;4969039;28;21349;-74
2023/10/02 01:09:25;;;;;;;21.73;10.10;;;;;;;17.25;100.00;102342.97;4968770;28;20457;-75
2023/10/02 01:11:51;;;;;;;17.67;9.93;;;;;;;16.54;100.00;102231.47;4968191;28;20539;-75
2023/10/02 01:14:40;;;;;;;22.40;9.63;;;;;;;17.24;100.00;102335.03;4963637;28;20864;-75
2023/10/02 01:17:06;;;;;;;18.50;9.80;;;;;;;16.68;100.00;102255.66;4967308;28;20441;-75
2023/10/02 01:19:52;;;;;;;16.03;9.37;;;;;;;16.89;100.00;102298.09;4981668;28;20536;-75
2023/10/02 01:22:26;;;;;;;20.00;10.17;;;;;;;17.17;100.00;102345.88;4968775;28;20491;-75
2023/10/02 01:25:13;;;;;;;16.50;8.57;;;;;;;16.84;100.00;102289.72;4967714;28;20825;-75
2023/10/02 01:27:47;;;;;;;21.50;10.00;;;;;;;16.98;100.00;102319.53;4966388;28;20950;-75
2023/10/02 01:30:16;;;;;;;18.67;10.57;;;;;;;17.04;100.00;102325.00;4966802;28;20935;-75
2023/10/02 01:33:06;;;;;;;16.90;10.03;;;;;;;17.10;100.00;102339.63;4967250;28;20545;-75
2023/10/02 01:35:39;;;;;;;18.27;8.90;;;;;;;17.12;100.00;102341.06;4965979;28;20983;-75
2023/10/02 01:38:14;;;;;;;19.93;11.13;;;;;;;16.75;100.00;102276.53;4967315;28;20437;-75
2023/10/02 01:40:54;;;;;;;18.80;10.33;;;;;;;16.94;100.00;102325.38;4964337;28;20465;-75
2023/10/02 01:43:22;;;;;;;15.10;9.37;;;;;;;17.11;100.00;102347.53;4980228;28;20477;-75
2023/10/02 01:45:48;;;;;;;15.67;8.83;;;;;;;17.00;100.00;102331.84;4968763;28;20442;-75
2023/10/02 01:48:59;;;;;;;18.20;10.03;;;;;;;16.39;100.00;102228.94;4969584;28;20528;-75
2023/10/02 01:54:16;;;;;;;17.10;10.00;;;;;;;16.39;100.00;102250.59;4965937;28;20473;-75
2023/10/02 01:56:45;;;;;;;19.23;10.40;;;;;;;17.02;100.00;102340.63;4967160;28;20449;-75
2023/10/02 01:59:14;;;;;;;19.50;10.67;;;;;;;17.00;100.00;102344.59;4963939;28;20449;-74
2023/10/02 02:01:54;;;;;;;17.97;9.90;;;;;;;16.63;100.00;102289.81;4967048;28;20450;-75
2023/10/02 02:04:32;;;;;;;18.70;10.87;;;;;;;17.00;100.00;102353.53;4965228;28;20491;-75
2023/10/02 02:07:00;;;;;;;17.73;9.23;;;;;;;16.56;100.00;102261.91;4968981;28;20920;-75
2023/10/02 02:09:37;;;;;;;19.97;10.10;;;;;;;16.99;100.00;102341.03;4968749;28;20442;-75
2023/10/02 02:12:11;;;;;;;20.20;10.93;;;;;;;16.36;100.00;102232.03;4966751;28;20464;-75
2023/10/02 02:14:49;;;;;;;18.80;10.53;;;;;;;16.32;100.00;102237.03;4967433;28;20623;-75
2023/10/02 02:17:34;;;;;;;21.13;11.60;;;;;;;16.93;100.00;102337.28;4966282;28;20577;-75
2023/10/02 02:20:10;;;;;;;21.00;10.30;;;;;;;16.61;100.00;102279.22;4966670;28;20433;-75
2023/10/02 02:22:37;;;;;;;18.23;10.53;;;;;;;16.94;100.00;102338.09;4967163;28;20461;-75
2023/10/02 02:25:04;;;;;;;19.53;11.00;;;;;;;16.93;100.00;102337.28;4964608;28;20449;-75
2023/10/02 02:27:29;;;;;;;21.80;10.53;;;;;;;16.90;100.00;102331.44;4967899;28;20437;-75
2023/10/02 02:29:57;;;;;;;23.97;11.90;;;;;;;16.87;100.00;102332.69;4966969;28;20959;-75
2023/10/02 02:35:09;;;;;;;17.30;10.00;;;;;;;16.50;100.00;102266.25;4964407;28;20491;-75
2023/10/02 02:37:35;;;;;;;19.30;10.47;;;;;;;16.43;100.00;102254.56;4965165;28;20445;-75
2023/10/02 02:40:22;;;;;;;19.23;10.17;;;;;;;16.83;100.00;102322.44;4965892;28;20442;-75
2023/10/02 02:42:51;;;;;;;20.07;11.20;;;;;;;16.28;100.00;102228.47;4964973;28;20214;-75
2023/10/02 02:45:29;;;;;;;18.73;12.10;;;;;;;16.26;100.00;102216.19;4967760;28;20508;-75
2023/10/02 02:47:57;;;;;;;19.37;11.83;;;;;;;16.50;100.00;102258.97;4966008;28;20445;-75
2023/10/02 02:50:28;;;;;;;19.17;10.90;;;;;;;16.84;100.00;102319.53;4967213;28;20446;-75
2023/10/02 02:55:38;;;;;;;18.93;10.37;;;;;;;16.81;100.00;102330.78;4965339;28;20520;-75
2023/10/02 02:58:06;;;;;;;19.23;12.73;;;;;;;16.47;100.00;102278.31;4966280;28;21924;-74
2023/10/02 03:00:35;;;;;;;19.53;11.10;;;;;;;16.64;100.00;102302.34;4964438;28;20186;-75
2023/10/02 03:03:02;;;;;;;19.97;11.43;;;;;;;16.79;100.00;102334.72;4965312;28;20460;-75
2023/10/02 03:05:41;;;;;;;18.27;10.70;;;;;;;16.74;100.00;102319.03;4963856;28;20434;-75
2023/10/02 03:08:08;;;;;;;21.90;12.17;;;;;;;16.59;100.00;102304.84;4964683;28;20520;-75
2023/10/02 03:10:39;;;;;;;16.80;10.50;;;;;;;16.61;100.00;102297.34;4962358;28;20524;-75
2023/10/02 03:13:08;;;;;;;24.37;13.50;;;;;;;16.75;100.00;102345.13;4964455;28;20552;-75
2023/10/02 03:15:46;;;;;;;24.27;12.50;;;;;;;16.20;100.00;102257.59;4965910;28;20473;-75
2023/10/02 03:18:30;;;;;;;20.03;11.40;;;;;;;16.16;100.00;102264.44;4966172;28;20936;-75
2023/10/02 03:23:38;;;;;;;21.07;13.73;;;;;;;16.71;100.00;102341.13;4963355;28;20449;-75
2023/10/02 03:26:07;;;;;;;17.90;11.20;;;;;;;16.40;100.00;102296.44;4964156;28;20465;-75
2023/10/02 03:28:33;;;;;;;23.03;12.23;;;;;;;16.04;100.00;102247.94;4967302;28;20473;-75
2023/10/02 03:31:00;;;;;;;21.50;13.10;;;;;;;16.65;100.00;102331.94;4966202;28;20449;-75
2023/10/02 03:33:31;;;;;;;23.40;12.87;;;;;;;16.62;100.00;102342.34;4965715;28;20495;-75
2023/10/02 03:36:09;;;;;;;20.70;12.27;;;;;;;16.59;100.00;102332.75;4967231;28;20482;-75
2023/10/02 03:38:41;;;;;;;21.37;13.23;;;;;;;16.35;100.00;102330.56;4966567;28;20437;-75
2023/10/02 03:41:13;;;;;;;23.80;12.97;;;;;;;16.26;100.00;102309.06;4964736;28;20500;-75
2023/10/02 03:43:46;;;;;;;24.13;14.80;;;;;;;16.53;100.00;102357.09;4962369;28;20810;-75
2023/10/02 03:46:22;;;;;;;25.33;13.30;;;;;;;16.48;100.00;102336.03;4964486;28;20453;-75
2023/10/02 03:48:58;;;;;;;27.07;14.13;;;;;;;16.32;100.00;102312.03;4967741;28;20452;-75
2023/10/02 03:51:36;;;;;;;21.47;12.57;;;;;;;16.38;100.00;102325.59;4969256;28;20455;-75
2023/10/02 03:54:17;;;;;;;21.80;12.77;;;;;;;16.50;100.00;102344.81;4969321;28;20491;-75
2023/10/02 03:56:47;;;;;;;22.57;13.13;;;;;;;16.44;100.00;102346.44;4967684;28;20460;-75
2023/10/02 03:59:31;;;;;;;19.37;12.50;;;;;;;15.80;100.00;102258.22;4970030;28;20452;-75
2023/10/02 04:04:43;;;;;;;21.60;13.63;;;;;;;16.26;100.00;102356.97;4968922;28;20456;-75
2023/10/02 04:07:10;;;;;;;23.40;13.07;;;;;;;15.87;100.00;102293.44;4969014;28;20429;-75
2023/10/02 04:09:36;;;;;;;25.23;14.10;;;;;;;15.74;100.00;102272.56;4970494;28;20197;-75
2023/10/02 04:12:04;;;;;;;23.57;14.30;;;;;;;16.28;100.00;102352.19;4970468;28;20461;-75
2023/10/02 04:14:32;;;;;;;24.27;14.27;;;;;;;15.97;100.00;102302.03;4966185;28;20682;-75
2023/10/02 04:17:13;;;;;;;25.07;13.57;;;;;;;16.30;100.00;102363.66;4970794;28;20607;-75
2023/10/02 04:19:43;;;;;;;23.23;13.47;;;;;;;16.31;100.00;102367.19;4964485;28;20437;-75
2023/10/02 04:22:16;;;;;;;27.80;14.80;;;;;;;16.28;100.00;102346.75;4967020;28;20488;-75
2023/10/02 04:24:54;;;;;;;26.07;14.33;;;;;;;16.02;100.00;102321.22;4965667;28;20503;-75
2023/10/02 04:28:00;;;;;;;23.90;13.40;;;;;;;16.28;100.00;102358.44;4969729;28;20440;-75
2023/10/02 04:32:49;;;;;;;21.83;13.23;;;;;;;16.37;100.00;102380.75;4963221;28;20468;-75
2023/10/02 04:37:59;;;;;;;25.67;14.33;;;;;;;16.29;100.00;102389.06;4969421;28;20544;-75
2023/10/02 04:40:37;;;;;;;29.27;15.40;;;;;;;16.04;100.00;102334.56;4965576;28;20525;-75
2023/10/02 04:43:19;;;;;;;20.53;12.70;;;;;;;15.99;100.00;102337.84;4966076;28;20209;-75
2023/10/02 04:45:52;;;;;;;25.70;14.00;;;;;;;16.30;100.00;102379.91;4967306;28;20533;-75
2023/10/02 04:48:25;;;;;;;23.37;13.00;;;;;;;16.26;100.00;102378.63;4968723;28;20445;-75
2023/10/02 04:50:53;;;;;;;19.43;11.67;;;;;;;16.33;100.00;102393.03;4970408;28;20907;-74
2023/10/02 04:53:26;;;;;;;25.43;13.90;;;;;;;16.29;100.00;102397.19;4968829;28;20457;-75
2023/10/02 04:56:09;;;;;;;24.20;13.77;;;;;;;16.01;100.00;102351.19;4971636;28;21734;-75
2023/10/02 04:58:39;;;;;;;27.03;13.97;;;;;;;16.33;100.00;102409.28;4969215;28;20452;-75
2023/10/02 05:03:36;;;;;;;25.67;14.40;;;;;;;15.55;100.00;102317.31;4968387;28;20478;-75
2023/10/02 05:06:03;;;;;;;21.67;13.50;;;;;;;15.99;100.00;102375.72;4969445;28;20198;-75
2023/10/02 05:08:42;;;;;;;23.50;12.70;;;;;;;15.84;100.00;102352.53;4968155;28;20552;-75
2023/10/02 05:11:45;;;;;;;21.90;12.40;;;;;;;15.88;100.00;102373.59;4966233;28;21007;-75
2023/10/02 05:16:33;;;;;;;26.50;13.83;;;;;;;15.76;100.00;102364.31;4967450;28;21239;-75
2023/10/02 05:18:59;;;;;;;23.80;14.07;;;;;;;15.99;100.00;102399.25;4968900;28;20261;-75
2023/10/02 05:21:49;;;;;;;20.60;12.40;;;;;;;16.18;100.00;102425.63;4969109;28;20445;-75
2023/10/02 05:24:16;;;;;;;26.80;13.80;;;;;;;16.07;100.00;102447.00;4968284;28;20928;-75
2023/10/02 05:26:44;;;;;;;22.37;13.57;;;;;;;16.08;100.00;102444.09;4969049;28;20456;-75
2023/10/02 05:29:18;;;;;;;22.20;13.60;;;;;;;16.04;100.00;102453.63;4984234;28;20504;-75
2023/10/02 05:31:47;;;;;;;20.87;12.53;;;;;;;16.09;100.00;102466.59;4965586;28;20477;-75
2023/10/02 05:34:21;;;;;;;27.70;15.03;;;;;;;15.64;100.00;102419.97;4966597;28;21016;-75
2023/10/02 05:39:39;;;;;;;27.30;14.20;;;;;;;15.73;100.00;102465.63;4969558;28;20532;-75
2023/10/02 05:42:06;;;;;;;25.53;13.87;;;;;;;15.41;100.00;102422.84;4966626;28;20468;-75
2023/10/02 05:44:35;;;;;;;24.90;14.27;;;;;;;15.97;100.00;102517.72;4969692;28;20473;-75
2023/10/02 05:47:05;;;;;;;24.97;14.37;;;;;;;15.82;100.00;102515.03;4980073;28;20458;-75
2023/10/02 05:49:43;;;;;;;24.40;14.13;;;;;;;15.61;100.00;102488.78;4966774;28;20519;-75
2023/10/02 05:52:09;;;;;;;23.63;14.30;;;;;;;15.77;100.00;102522.94;4964771;28;20495;-75
2023/10/02 05:54:40;;;;;;;21.93;13.27;;;;;;;15.82;100.00;102540.25;4966007;28;20472;-75
2023/10/02 05:57:08;;;;;;;24.63;14.07;;;;;;;15.80;100.00;102563.13;4965606;28;20437;-74
2023/10/02 05:59:45;;;;;;;26.50;15.47;;;;;;;15.14;100.00;102496.38;4963468;28;20453;-75
2023/10/02 06:02:21;;;;;;;26.23;14.17;;;;;;;15.29;100.00;102496.34;4966733;28;20476;-75
2023/10/02 06:04:48;;;;;;;25.27;13.90;;;;;;;15.80;100.00;102582.06;4957796;28;20500;-75
2023/10/02 06:07:19;;;;;;;21.00;13.40;;;;;;;15.71;100.00;102588.63;4967689;28;20433;-75
2023/10/02 06:09:46;;;;;;;26.37;14.87;;;;;;;15.35;100.00;102548.81;4965972;28;20453;-75
2023/10/02 06:12:12;;;;;;;27.53;15.33;;;;;;;15.81;100.00;102632.44;4963046;28;20548;-75
2023/10/02 06:14:39;;;;;;;25.50;13.17;;;;;;;15.91;100.00;102626.69;4980769;28;21034;-75
2023/10/02 06:17:11;;;;;;;26.63;14.20;;;;;;;15.70;100.00;102630.22;4966476;28;20469;-75
2023/10/02 06:19:43;;;;;;;27.27;14.93;;;;;;;15.79;100.00;102648.00;4968777;28;20437;-75
2023/10/02 06:22:13;;;;;;;25.10;14.10;;;;;;;15.64;100.00;102629.06;4967730;28;20462;-75
2023/10/02 06:24:42;;;;;;;24.80;13.40;;;;;;;15.79;100.00;102666.94;4967719;28;20803;-75
2023/10/02 06:27:14;;;;;;;24.13;14.23;;;;;;;15.82;100.00;102677.38;4967785;28;20437;-76
2023/10/02 06:29:44;;;;;;;20.00;12.60;;;;;;;15.79;100.00;102675.94;4969067;28;20470;-74
2023/10/02 06:32:19;;;;;;;27.20;14.60;;;;;;;15.18;100.00;102596.00;4982943;28;20453;-75
2023/10/02 06:34:50;;;;;;;27.80;14.80;;;;;;;15.85;100.00;102697.81;4969091;28;20501;-75
2023/10/02 06:37:24;;;;;;;22.70;12.60;;;;;;;15.92;100.00;102707.72;4965249;28;20430;-75
2023/10/02 06:42:48;;;;;;;22.53;13.90;;;;;;;15.65;100.00;102695.69;4965583;28;20475;-75
2023/10/02 06:45:18;;;;;;;27.67;15.27;;;;;;;15.46;100.00;102658.38;4966909;28;20485;-75
2023/10/02 06:47:44;;;;;;;25.07;13.80;;;;;;;15.15;100.00;102599.91;4967797;28;20481;-74
2023/10/02 06:50:55;;;;;;;23.83;13.30;;;;;;;15.98;100.00;102716.94;4967952;28;20441;-75
2023/10/02 06:53:02;;;;;;;27.43;15.40;;;;;;;15.23;100.00;102620.63;4964913;28;20457;-75
2023/10/02 06:55:31;;;;;;;24.70;14.60;;;;;;;15.94;100.00;102724.59;4965249;28;20512;-75
2023/10/02 06:57:56;;;;;;;25.40;13.97;;;;;;;15.87;100.00;102720.13;4968151;28;20225;-75
2023/10/02 07:00:25;;;;;;;22.17;14.23;;;;;;;15.88;100.00;102725.38;4964977;28;22587;-75
2023/10/02 07:02:56;;;;;;;26.70;14.20;;;;;;;15.90;100.00;102734.13;4965464;28;20217;-75
2023/10/02 07:05:32;;;;;;;25.37;13.90;;;;;;;15.90;100.00;102736.00;4966724;28;20925;-75
2023/10/02 07:08:21;;;;;;;21.80;13.23;;;;;;;15.82;100.00;102707.16;4964041;28;21191;-75
2023/10/02 07:10:50;;;;;;;29.37;16.40;;;;;;;15.87;100.00;102720.97;4967246;28;20445;-75
2023/10/02 07:13:19;;;;;;;23.80;14.47;;;;;;;16.15;100.00;102745.47;4968312;28;20468;-74
2023/10/02 07:15:57;;;;;;;21.60;13.20;;;;;;;16.00;100.00;102717.59;4964542;28;20962;-75
2023/10/02 07:18:35;;;;;;;21.50;13.33;;;;;;;15.91;100.00;102710.59;4964979;28;20570;-75
2023/10/02 07:21:01;;;;;;;22.70;13.63;;;;;;;15.53;100.00;102619.56;4966054;28;20977;-74
2023/10/02 07:23:30;;;;;;;26.73;15.17;;;;;;;16.30;100.00;102722.94;4965399;28;20465;-75
2023/10/02 07:25:56;;;;;;;22.97;14.40;;;;;;;16.15;100.00;102698.63;4968203;28;20472;-75
2023/10/02 07:28:21;;;;;;;24.40;14.30;;;;;;;16.26;100.00;102715.22;4964136;28;21577;-75
2023/10/02 07:30:50;;;;;;;21.30;14.07;;;;;;;16.11;100.00;102662.94;4966824;28;20265;-75
2023/10/02 07:33:18;;;;;;;21.30;13.00;;;;;;;16.41;100.00;102693.50;4963520;28;20214;-75
2023/10/02 07:35:52;;;;;;;23.40;13.83;;;;;;;16.27;100.00;102661.88;4964999;28;21520;-75
2023/10/02 07:38:22;;;;;;;21.57;13.60;;;;;;;16.16;100.00;102614.50;4962833;28;20441;-75
2023/10/02 07:40:48;;;;;;;22.33;13.40;;;;;;;16.44;100.00;102651.66;4963228;28;20437;-75
2023/10/02 07:43:21;;;;;;;24.00;14.53;;;;;;;16.64;100.00;102670.78;4958686;28;20983;-75
2023/10/02 07:46:06;;;;;;;25.80;15.37;;;;;;;16.69;100.00;102662.91;4962643;28;20293;-75
2023/10/02 07:48:35;;;;;;;24.70;14.40;;;;;;;16.66;100.00;102637.06;4965885;28;20492;-75
2023/10/02 07:51:06;;;;;;;22.63;13.00;;;;;;;16.67;100.00;102629.75;4962879;28;20512;-75
2023/10/02 07:53:40;;;;;;;23.70;13.50;;;;;;;16.47;100.00;102578.13;4965267;28;20556;-75
2023/10/02 07:56:07;;;;;;;20.13;13.70;;;;;;;16.64;100.00;102597.66;4964685;28;20963;-75
2023/10/02 07:58:35;;;;;;;22.47;14.10;;;;;;;16.65;100.00;102586.59;4967017;28;20453;-75
2023/10/02 08:01:11;;;;;;;23.10;13.60;;;;;;;16.96;100.00;102612.50;4961144;28;20433;-75
2023/10/02 08:03:49;;;;;;;21.97;13.40;;;;;;;16.31;100.00;102506.13;4965788;28;20445;-75
2023/10/02 08:06:21;;;;;;;24.17;14.17;;;;;;;16.54;100.00;102519.41;4957888;28;20457;-75
2023/10/02 08:09:35;;;;;;;23.50;14.07;;;;;;;17.15;100.00;102600.97;4960557;28;20461;-75
2023/10/02 08:11:34;;;;;;;22.50;13.70;;;;;;;17.24;100.00;102600.78;4958034;28;20524;-75
2023/10/02 08:14:00;;;;;;;21.93;13.27;;;;;;;17.19;100.00;102565.31;4961932;28;20483;-75
2023/10/02 08:16:27;;;;;;;27.33;16.47;;;;;;;16.94;100.00;102549.50;4960922;28;20202;-75
2023/10/02 08:18:58;;;;;;;25.33;15.03;;;;;;;16.50;100.00;102443.13;4964389;28;20528;-75
2023/10/02 08:21:46;;;;;;;26.03;15.17;;;;;;;16.98;100.00;102503.88;4965512;28;20544;-75
2023/10/02 08:24:13;;;;;;;23.50;14.30;;;;;;;17.39;100.00;102566.22;4962758;28;20886;-75
2023/10/02 08:26:45;;;;;;;24.90;14.50;;;;;;;17.44;100.00;102558.31;4964047;28;20531;-75
2023/10/02 08:29:13;;;;;;;24.33;15.03;;;;;;;16.82;100.00;102437.31;4963473;28;20496;-75
2023/10/02 08:31:43;;;;;;;29.77;16.17;;;;;;;16.80;100.00;102434.78;4964621;28;20472;-75
2023/10/02 08:34:13;;;;;;;25.73;15.47;;;;;;;17.49;100.00;102536.84;4966722;28;20469;-75
2023/10/02 08:36:40;;;;;;;29.93;16.00;;;;;;;17.51;100.00;102528.50;4968833;28;20453;-74
2023/10/02 08:39:06;;;;;;;23.10;13.53;;;;;;;17.49;100.00;102511.59;4967748;28;20449;-75
2023/10/02 08:41:43;;;;;;;22.80;14.67;;;;;;;17.46;100.00;102498.44;4968844;28;20436;-75
2023/10/02 08:44:13;;;;;;;27.50;15.60;;;;;;;17.36;100.00;102471.72;4970490;28;20455;-75
2023/10/02 08:46:42;;;;;;;23.97;14.50;;;;;;;17.68;100.00;102499.97;4966905;28;20477;-77
2023/10/02 08:49:12;;;;;;;26.17;14.33;;;;;;;17.28;100.00;102410.34;4969664;28;20437;-75
2023/10/02 08:51:38;;;;;;;26.50;15.37;;;;;;;17.93;100.00;102505.63;4980922;28;20444;-75
2023/10/02 08:54:05;;;;;;;26.20;14.93;;;;;;;17.60;100.00;102426.88;4965738;28;20457;-75
2023/10/02 08:56:44;;;;;;;24.30;14.93;;;;;;;17.84;100.00;102469.72;4968611;28;20448;-75
2023/10/02 08:59:18;;;;;;;26.67;16.33;;;;;;;18.21;100.00;102485.63;4968332;28;20452;-75
2023/10/02 09:01:47;;;;;;;23.53;14.03;;;;;;;18.26;100.00;102475.78;4968738;28;21039;-75
2023/10/02 09:04:22;;;;;;;26.20;15.33;;;;;;;18.35;100.00;102475.59;4968249;28;21147;-75
2023/10/02 09:06:49;;;;;;;29.47;15.57;;;;;;;18.10;100.00;102435.47;4969514;28;20429;-76
2023/10/02 09:11:57;;;;;;;23.83;13.63;;;;;;;18.62;100.00;102430.16;4970817;28;20880;-75
2023/10/02 09:17:43;;;;;;;28.17;14.60;;;;;;;18.19;100.00;102355.44;4968054;28;20449;-74
2023/10/02 09:20:03;;;;;;;23.80;15.27;;;;;;;18.66;100.00;102437.69;4969077;28;20438;-75
2023/10/02 09:22:34;;;;;;;29.37;15.67;;;;;;;18.11;100.00;102352.13;4969068;28;20441;-75
2023/10/02 09:25:16;;;;;;;29.03;16.97;;;;;;;18.45;100.00;102435.22;4970534;28;20574;-74
2023/10/02 09:27:56;;;;;;;25.03;15.30;;;;;;;18.52;100.00;102436.06;4970317;28;21213;-75
2023/10/02 09:33:05;;;;;;;24.60;14.17;;;;;;;18.19;100.00;102368.19;4969303;28;21022;-75
2023/10/02 09:35:39;;;;;;;24.10;15.47;;;;;;;18.49;100.00;102431.88;4969572;28;20915;-75
2023/10/02 09:38:10;;;;;;;27.43;15.43;;;;;;;18.47;100.00;102427.69;4969962;28;20437;-75
2023/10/02 09:41:02;;;;;;;24.40;15.00;;;;;;;18.51;100.00;102423.50;4968098;28;20446;-74
2023/10/02 09:43:35;;;;;;;25.93;14.87;;;;;;;18.44;100.00;102376.50;4969046;28;20454;-74
2023/10/02 09:46:20;;;;;;;25.83;13.80;;;;;;;18.55;100.00;102359.53;4967954;28;20449;-75
2023/10/02 09:49:09;;;;;;;24.43;14.67;;;;;;;18.89;100.00;102369.25;4968261;28;20494;-75
2023/10/02 09:51:45;;;;;;;31.70;15.63;;;;;;;19.10;100.00;102378.97;4965426;28;20433;-75
2023/10/02 09:54:32;;;;;;;30.77;17.57;;;;;;;19.05;100.00;102375.22;4969147;28;20531;-75
2023/10/02 09:57:31;;;;;;;27.60;15.40;;;;;;;18.46;100.00;102285.59;4967496;28;20457;-74
2023/10/02 09:59:57;;;;;;;27.27;15.23;;;;;;;18.64;100.00;102314.75;4966013;28;20508;-75
2023/10/02 10:10:51;;;;;;;28.10;15.73;;;;;;;19.33;100.00;102334.03;4969666;28;20537;-74
2023/10/02 10:13:35;;;;;;;25.20;14.50;;;;;;;19.56;100.00;102322.53;4967678;28;20449;-75
2023/10/02 10:16:18;;;;;;;28.10;17.10;;;;;;;19.41;100.00;102320.13;4970368;28;20557;-74
2023/10/02 10:19:26;;;;;;;24.60;14.40;;;;;;;19.42;100.00;102313.66;4968903;28;20442;-75
2023/10/02 10:22:03;;;;;;;23.70;13.53;;;;;;;19.60;100.00;102304.69;4968668;28;20429;-74
2023/10/02 10:24:51;;;;;;;22.43;13.50;;;;;;;19.67;100.00;102308.22;4964820;28;20429;-75
2023/10/02 10:27:43;;;;;;;33.40;15.47;;;;;;;19.57;100.00;102314.13;4967685;28;20438;-75
2023/10/02 10:30:33;;;;;;;24.60;13.23;;;;;;;19.56;100.00;102306.22;4970286;28;20473;-75
2023/10/02 10:33:13;;;;;;;28.97;15.77;;;;;;;19.53;100.00;102306.66;4967868;28;20460;-75
2023/10/02 10:35:48;;;;;;;31.43;15.27;;;;;;;19.60;100.00;102299.25;4967577;28;20457;-75
2023/10/02 10:38:36;;;;;;;31.67;14.53;;;;;;;19.64;100.00;102286.84;4968880;28;20438;-75
2023/10/02 10:41:27;;;;;;;24.70;13.77;;;;;;;19.91;100.00;102273.03;4967833;28;20812;-75
2023/10/02 10:44:06;;;;;;;25.40;14.50;;;;;;;19.55;100.00;102163.00;4966802;28;20432;-75
2023/10/02 10:46:32;;;;;;;29.43;14.60;;;;;;;19.92;100.00;102171.22;4963639;28;20445;-75
2023/10/02 10:49:10;;;;;;;24.33;15.23;;;;;;;20.14;100.00;102232.31;4966559;28;20433;-75
2023/10/02 10:51:36;;;;;;;21.83;13.83;;;;;;;20.33;100.00;102216.75;4963732;28;20441;-75
2023/10/02 10:57:27;;;;;;;25.67;13.77;;;;;;;20.03;100.00;102216.72;4972914;28;20967;-75
2023/10/02 11:00:25;;;;;;;24.37;13.23;;;;;;;20.36;100.00;102191.75;4964177;28;21173;-75
2023/10/02 11:02:57;;;;;;;27.07;14.80;;;;;;;20.15;100.00;102132.34;4964510;28;20520;-75
2023/10/02 11:05:23;;;;;;;25.63;14.30;;;;;;;20.68;100.00;102177.91;4977902;28;20477;-75
2023/10/02 11:07:49;;;;;;;26.10;14.20;;;;;;;20.61;100.00;102153.47;4962757;28;20485;-75
2023/10/02 11:10:22;;;;;;;25.50;14.50;;;;;;;20.26;100.00;102099.69;4961358;28;20272;-75
2023/10/02 11:12:56;;;;;;;24.43;14.43;;;;;;;20.00;100.00;102054.63;4964340;28;20472;-76
2023/10/02 11:18:20;;;;;;;21.17;11.37;;;;;;;20.59;100.00;102023.94;4964280;28;20444;-76
2023/10/02 11:20:51;;;;;;;16.70;9.83;;;;;;;21.13;100.00;102088.16;4963697;28;20441;-76
2023/10/02 11:23:23;;;;;;;25.10;13.60;;;;;;;20.42;100.00;102092.72;4964535;28;20492;-76
2023/10/02 11:25:54;;;;;;;24.73;13.70;;;;;;;20.32;100.00;102139.63;4966166;28;20425;-75
2023/10/02 11:28:30;;;;;;;21.53;13.00;;;;;;;19.97;100.00;102115.00;4967797;28;20800;-75
2023/10/02 11:31:30;;;;;;;23.87;12.77;;;;;;;20.35;100.00;102175.66;4968028;28;20496;-76
2023/10/02 11:34:07;;;;;;;24.53;14.07;;;;;;;20.33;100.00;102157.63;4964837;28;20437;-75
2023/10/02 11:36:36;;;;;;;24.07;12.63;;;;;;;20.53;100.00;102162.81;4980713;28;20939;-76
2023/10/02 11:39:16;;;;;;;23.60;12.33;;;;;;;20.41;100.00;102129.22;4967939;28;20465;-75
2023/10/02 11:41:42;;;;;;;22.43;12.30;;;;;;;20.48;100.00;102132.69;4968083;28;20456;-75
2023/10/02 11:44:12;;;;;;;22.20;13.60;;;;;;;20.56;100.00;102156.06;4968623;28;20909;-75
2023/10/02 11:46:38;;;;;;;24.73;13.67;;;;;;;20.15;100.00;102107.84;4965656;28;20433;-75
2023/10/02 11:49:04;;;;;;;22.00;12.70;;;;;;;20.38;100.00;102159.66;4965355;28;20491;-75
2023/10/02 11:51:29;;;;;;;21.50;12.63;;;;;;;20.51;100.00;102147.72;4967682;28;20441;-76
2023/10/02 11:53:59;;;;;;;26.67;12.57;;;;;;;20.56;100.00;102103.47;4967830;28;20191;-75
2023/10/02 11:56:28;;;;;;;27.30;12.80;;;;;;;21.06;100.00;102122.94;4966558;28;20550;-75
2023/10/02 11:58:54;;;;;;;26.13;13.70;;;;;;;21.12;100.00;102107.53;4964536;28;20481;-75
2023/10/02 12:01:26;;;;;;;21.63;12.80;;;;;;;21.17;100.00;102092.06;4969061;28;20458;-75
2023/10/02 12:03:56;;;;;;;31.83;13.70;;;;;;;21.11;100.00;101999.44;4966622;28;20534;-75
2023/10/02 12:06:26;;;;;;;20.23;11.10;;;;;;;21.04;100.00;101928.69;4968372;28;20495;-75
2023/10/02 12:08:52;;;;;;;21.50;11.30;;;;;;;21.57;100.00;101960.28;4966063;28;20481;-75
2023/10/02 12:11:17;;;;;;;23.03;12.23;;;;;;;21.38;100.00;101906.97;4985402;28;20481;-75
2023/10/02 12:13:44;;;;;;;19.30;9.90;;;;;;;21.54;100.00;101870.69;4971524;28;20461;-76
2023/10/02 12:16:11;;;;;;;20.70;12.40;;;;;;;21.83;100.00;101922.50;4971926;28;20777;-75
2023/10/02 12:18:37;;;;;;;23.50;10.77;;;;;;;21.85;100.00;101880.19;4971451;28;20443;-77
2023/10/02 12:21:08;;;;;;;21.03;11.10;;;;;;;22.19;100.00;101903.94;4967010;28;20445;-76
2023/10/02 12:23:38;;;;;;;19.03;10.03;;;;;;;22.35;100.00;101851.16;4965719;28;20493;-76
2023/10/02 12:26:04;;;;;;;19.30;11.93;;;;;;;21.67;100.00;101844.97;4969898;28;20437;-76
2023/10/02 12:28:30;;;;;;;24.93;11.07;;;;;;;21.65;100.00;101901.72;4969617;28;20789;-76